Time;durP1;ratioP1;P1;durP2;ratioP2;P2;SDS_P1;SDS_P2;PMS_P1;PMS_P2;Temp;Humidity;BMP_temperature;BMP_pressure;BME280_temperature;BME280_humidity;BME280_pressure;Samples;Min_cycle;Max_cycle;Signal;HPM_P1;HPM_P2
2023/06/18 00:01:11;;;;;;;12.33;7.33;;;15.20;74.70;;;;;;4770142;30;20048;-87
2023/06/18 00:03:38;;;;;;;10.57;6.45;;;15.20;74.80;;;;;;4784849;30;20070;-87
2023/06/18 00:06:05;;;;;;;11.05;6.90;;;15.20;74.70;;;;;;4768056;30;20540;-87
2023/06/18 00:08:32;;;;;;;11.85;6.80;;;15.20;74.30;;;;;;4768637;30;20563;-87
2023/06/18 00:10:59;;;;;;;12.00;6.65;;;15.10;74.60;;;;;;4766102;30;20055;-87
2023/06/18 00:13:26;;;;;;;10.43;6.57;;;15.10;74.70;;;;;;4767406;30;20117;-87
2023/06/18 00:15:53;;;;;;;10.15;5.88;;;15.10;74.70;;;;;;4767001;30;20050;-87
2023/06/18 00:18:20;;;;;;;11.07;6.22;;;15.00;74.80;;;;;;4780224;30;20564;-87
2023/06/18 00:20:49;;;;;;;10.18;6.28;;;15.00;74.90;;;;;;4764947;30;20133;-87
2023/06/18 00:23:16;;;;;;;10.88;6.18;;;15.00;74.70;;;;;;4782095;30;20108;-87
2023/06/18 00:25:43;;;;;;;10.60;5.60;;;15.00;74.60;;;;;;4798844;29;20047;-87
2023/06/18 00:28:10;;;;;;;11.15;5.97;;;15.00;74.50;;;;;;4781881;30;20126;-87
2023/06/18 00:30:37;;;;;;;10.90;6.35;;;15.00;74.50;;;;;;4764960;30;20043;-86
2023/06/18 00:33:05;;;;;;;10.05;6.07;;;15.10;74.20;;;;;;4780173;30;20203;-86
2023/06/18 00:35:33;;;;;;;10.68;6.35;;;15.10;74.10;;;;;;4763772;30;20043;-87
2023/06/18 00:38:02;;;;;;;11.07;6.27;;;15.10;74.00;;;;;;4780654;30;20051;-87
2023/06/18 00:40:30;;;;;;;10.60;6.57;;;15.20;73.80;;;;;;4765912;30;20051;-87
2023/06/18 00:42:57;;;;;;;12.23;6.75;;;15.10;74.10;;;;;;4782940;30;20061;-87
2023/06/18 00:45:29;;;;;;;9.82;6.15;;;15.10;74.20;;;;;;4778903;30;20043;-87
2023/06/18 00:47:56;;;;;;;10.68;6.70;;;15.00;74.40;;;;;;4767973;30;20086;-87
2023/06/18 00:50:26;;;;;;;10.73;6.40;;;15.00;74.50;;;;;;4766675;30;20054;-87
2023/06/18 00:52:59;;;;;;;10.77;6.20;;;14.90;74.80;;;;;;4762562;30;20047;-86
2023/06/18 00:55:28;;;;;;;10.23;6.82;;;14.90;74.80;;;;;;4765607;30;20525;-87
2023/06/18 00:57:59;;;;;;;11.20;7.03;;;14.90;74.80;;;;;;4762521;30;20463;-87
2023/06/18 01:00:28;;;;;;;12.15;7.28;;;14.90;74.80;;;;;;4762447;30;20503;-87
2023/06/18 01:02:56;;;;;;;10.17;6.30;;;14.90;75.00;;;;;;4781116;29;20059;-87
2023/06/18 01:05:24;;;;;;;10.85;6.57;;;14.90;74.90;;;;;;4780854;30;20480;-87
2023/06/18 01:07:53;;;;;;;12.50;6.85;;;14.80;74.90;;;;;;4764522;30;20131;-86
2023/06/18 01:10:20;;;;;;;10.93;7.00;;;14.80;74.80;;;;;;4760350;30;20507;-87
2023/06/18 01:12:49;;;;;;;12.38;7.07;;;14.80;74.90;;;;;;4780079;30;20072;-87
2023/06/18 01:15:18;;;;;;;11.10;7.00;;;14.80;74.90;;;;;;4763478;30;20047;-87
2023/06/18 01:17:48;;;;;;;13.88;6.97;;;14.80;74.80;;;;;;4780176;30;20063;-87
2023/06/18 01:20:17;;;;;;;14.07;7.82;;;14.80;74.80;;;;;;4782155;30;20518;-87
2023/06/18 01:23:02;;;;;;;13.05;7.72;;;14.70;75.00;;;;;;4766455;30;20557;-87
2023/06/18 01:25:36;;;;;;;14.07;8.02;;;14.70;75.20;;;;;;4792648;29;20455;-87
2023/06/18 01:28:07;;;;;;;12.20;7.53;;;14.70;75.20;;;;;;4781961;30;20508;-87
2023/06/18 01:30:36;;;;;;;13.30;7.63;;;14.70;75.00;;;;;;4762227;30;20047;-87
2023/06/18 01:33:03;;;;;;;12.82;8.55;;;14.60;75.40;;;;;;4762019;30;20067;-86
2023/06/18 01:35:31;;;;;;;12.85;7.45;;;14.60;75.70;;;;;;4766377;30;20494;-87
2023/06/18 01:38:23;;;;;;;13.48;8.35;;;14.50;75.90;;;;;;4779908;30;20101;-87
2023/06/18 01:41:15;;;;;;;13.97;8.37;;;14.50;75.90;;;;;;4774940;30;20051;-87
2023/06/18 01:43:51;;;;;;;12.10;7.43;;;14.50;75.90;;;;;;4763726;30;20503;-87
2023/06/18 01:46:23;;;;;;;15.18;8.60;;;14.40;76.00;;;;;;4760811;30;20070;-87
2023/06/18 01:49:04;;;;;;;13.52;8.10;;;14.40;76.10;;;;;;4778354;29;20075;-87
2023/06/18 01:51:35;;;;;;;11.95;7.75;;;14.40;76.10;;;;;;4781814;30;20494;-87
2023/06/18 01:54:03;;;;;;;12.97;8.07;;;14.40;76.00;;;;;;4766796;30;20077;-87
2023/06/18 01:56:31;;;;;;;13.30;8.30;;;14.40;76.00;;;;;;4788363;29;20035;-87
2023/06/18 01:58:58;;;;;;;13.27;8.30;;;14.50;75.70;;;;;;4762943;30;20566;-87
2023/06/18 02:01:26;;;;;;;11.27;7.55;;;14.50;75.70;;;;;;4773839;30;20047;-87
2023/06/18 02:03:53;;;;;;;13.02;7.53;;;14.50;75.50;;;;;;4777652;29;20556;-87
2023/06/18 02:06:21;;;;;;;13.00;7.23;;;14.50;75.30;;;;;;4778192;30;20152;-87
2023/06/18 02:08:48;;;;;;;13.32;7.00;;;14.50;75.10;;;;;;4776125;30;20442;-87
2023/06/18 02:11:15;;;;;;;13.40;6.90;;;14.50;75.10;;;;;;4778479;30;20095;-87
2023/06/18 02:13:42;;;;;;;13.00;7.13;;;14.50;75.20;;;;;;4765100;30;20043;-87
2023/06/18 02:16:09;;;;;;;11.02;7.13;;;14.50;75.20;;;;;;4776082;30;20104;-87
2023/06/18 02:18:36;;;;;;;13.77;7.43;;;14.50;75.20;;;;;;4763925;30;20523;-87
2023/06/18 02:21:04;;;;;;;13.30;6.90;;;14.50;75.20;;;;;;4775775;29;20043;-87
2023/06/18 02:23:31;;;;;;;12.05;7.00;;;14.40;75.40;;;;;;4778076;30;20047;-86
2023/06/18 02:25:58;;;;;;;11.75;6.93;;;14.40;75.20;;;;;;4765017;30;20130;-87
2023/06/18 02:28:26;;;;;;;13.38;7.30;;;14.40;75.20;;;;;;4762191;30;20372;-87
2023/06/18 02:30:55;;;;;;;11.93;6.60;;;14.40;75.20;;;;;;4780379;30;20075;-87
2023/06/18 02:33:22;;;;;;;12.82;7.85;;;14.40;75.00;;;;;;4777895;30;20051;-86
2023/06/18 02:35:49;;;;;;;11.90;6.90;;;14.40;75.10;;;;;;4775793;30;20078;-86
2023/06/18 02:38:17;;;;;;;12.60;6.82;;;14.50;75.00;;;;;;4767376;30;20475;-87
2023/06/18 02:40:44;;;;;;;12.43;6.82;;;14.50;75.10;;;;;;4765117;30;20062;-86
2023/06/18 02:43:12;;;;;;;11.00;6.60;;;14.40;75.10;;;;;;4791437;29;20051;-86
2023/06/18 02:45:39;;;;;;;11.60;6.20;;;14.30;75.10;;;;;;4761821;30;20134;-86
2023/06/18 02:48:06;;;;;;;10.88;6.72;;;14.30;75.10;;;;;;4779567;30;20058;-86
2023/06/18 02:50:34;;;;;;;10.85;6.20;;;14.40;74.90;;;;;;4777330;30;20055;-87
2023/06/18 02:53:01;;;;;;;12.27;6.90;;;14.40;75.30;;;;;;4765845;30;20071;-86
2023/06/18 02:55:31;;;;;;;11.60;6.47;;;14.30;75.50;;;;;;4775021;30;20126;-86
2023/06/18 02:57:58;;;;;;;11.10;6.63;;;14.20;75.60;;;;;;4778185;30;20047;-86
2023/06/18 03:00:26;;;;;;;11.60;6.57;;;14.30;75.70;;;;;;4762363;30;20100;-86
2023/06/18 03:02:53;;;;;;;10.98;5.50;;;14.20;75.60;;;;;;4765773;30;20047;-87
2023/06/18 03:05:24;;;;;;;10.38;6.40;;;14.20;75.70;;;;;;4764987;30;20051;-86
2023/06/18 03:07:51;;;;;;;10.27;5.83;;;14.20;75.80;;;;;;4765299;30;20406;-87
2023/06/18 03:10:19;;;;;;;11.32;5.78;;;14.10;76.00;;;;;;4778550;30;20134;-86
2023/06/18 03:12:50;;;;;;;10.90;6.05;;;14.10;76.20;;;;;;4794099;29;20062;-87
2023/06/18 03:15:29;;;;;;;10.35;6.00;;;14.00;76.50;;;;;;4763082;30;20051;-86
2023/06/18 03:17:56;;;;;;;11.30;5.80;;;14.00;76.60;;;;;;4756704;30;20531;-86
2023/06/18 03:20:24;;;;;;;12.17;6.30;;;14.00;76.60;;;;;;4759181;30;20086;-86
2023/06/18 03:22:56;;;;;;;11.85;6.72;;;13.90;76.90;;;;;;4761336;30;20065;-86
2023/06/18 03:25:23;;;;;;;12.13;6.63;;;13.90;77.10;;;;;;4762217;30;20469;-86
2023/06/18 03:27:51;;;;;;;11.63;6.60;;;13.80;77.40;;;;;;4779402;30;20067;-86
2023/06/18 03:30:20;;;;;;;11.40;6.70;;;13.80;77.50;;;;;;4761682;30;20124;-86
2023/06/18 03:32:48;;;;;;;10.30;6.10;;;13.90;77.30;;;;;;4766117;30;20502;-87
2023/06/18 03:35:15;;;;;;;11.68;6.53;;;13.90;77.20;;;;;;4782072;30;20047;-87
2023/06/18 03:37:46;;;;;;;11.23;6.45;;;14.00;77.30;;;;;;4764610;30;20076;-87
2023/06/18 03:40:13;;;;;;;12.07;6.75;;;13.90;77.40;;;;;;4763953;30;20047;-86
2023/06/18 03:42:41;;;;;;;11.85;7.47;;;13.90;77.40;;;;;;4764569;30;20533;-87
2023/06/18 03:45:11;;;;;;;11.10;6.50;;;13.90;77.50;;;;;;4764885;30;20047;-86
2023/06/18 03:47:38;;;;;;;11.68;6.85;;;13.80;77.50;;;;;;4766281;29;20054;-87
2023/06/18 03:50:06;;;;;;;12.45;6.45;;;13.80;77.90;;;;;;4782859;30;20047;-86
2023/06/18 03:52:34;;;;;;;11.65;7.18;;;13.70;78.00;;;;;;4767435;30;20436;-86
2023/06/18 03:55:01;;;;;;;12.18;6.35;;;13.80;77.80;;;;;;4780795;30;20046;-86
2023/06/18 03:57:30;;;;;;;11.20;6.73;;;13.90;77.50;;;;;;4768072;30;20051;-86
2023/06/18 03:59:58;;;;;;;11.05;5.97;;;13.90;77.60;;;;;;4768507;30;20218;-86
2023/06/18 04:02:25;;;;;;;10.38;6.55;;;14.00;77.40;;;;;;4783086;30;20042;-86
2023/06/18 04:04:52;;;;;;;13.52;5.80;;;14.00;77.30;;;;;;4769035;30;20051;-86
2023/06/18 04:07:19;;;;;;;10.85;6.18;;;14.10;77.30;;;;;;4765272;30;20058;-86
2023/06/18 04:09:47;;;;;;;10.90;6.57;;;14.20;76.90;;;;;;4764996;30;20077;-86
2023/06/18 04:12:14;;;;;;;12.05;6.38;;;14.30;76.60;;;;;;4780632;30;20082;-87
2023/06/18 04:14:41;;;;;;;11.10;6.20;;;14.40;76.50;;;;;;4778608;30;20042;-87
2023/06/18 04:17:08;;;;;;;12.57;6.53;;;14.40;76.40;;;;;;4779690;30;20105;-87
2023/06/18 04:19:35;;;;;;;11.20;6.05;;;14.50;76.30;;;;;;4780909;30;20072;-88
2023/06/18 04:22:03;;;;;;;11.20;5.30;;;14.50;76.20;;;;;;4767795;30;20104;-87
2023/06/18 04:24:31;;;;;;;10.18;5.95;;;14.70;76.10;;;;;;4762547;30;20078;-88
2023/06/18 04:26:59;;;;;;;10.13;6.22;;;14.90;75.50;;;;;;4770186;30;20054;-87
2023/06/18 04:29:27;;;;;;;10.80;5.80;;;15.10;75.00;;;;;;4780394;30;20046;-87
2023/06/18 04:31:54;;;;;;;10.48;6.10;;;15.30;74.20;;;;;;4765848;30;20043;-87
2023/06/18 04:34:21;;;;;;;11.57;6.37;;;15.50;73.30;;;;;;4771086;30;20047;-87
2023/06/18 04:36:48;;;;;;;10.20;6.10;;;15.50;73.30;;;;;;4763475;30;20067;-88
2023/06/18 04:39:19;;;;;;;10.10;5.57;;;15.50;73.30;;;;;;4768734;29;20100;-87
2023/06/18 04:41:46;;;;;;;13.15;6.22;;;15.60;73.00;;;;;;4783263;30;20468;-87
2023/06/18 04:44:13;;;;;;;13.50;6.28;;;15.70;72.90;;;;;;4765710;30;20047;-87
2023/06/18 04:46:43;;;;;;;10.13;5.60;;;15.70;72.60;;;;;;4764350;30;20533;-87
2023/06/18 04:49:10;;;;;;;10.05;6.03;;;15.90;72.80;;;;;;4762451;30;20039;-87
2023/06/18 04:51:39;;;;;;;10.32;6.05;;;16.00;72.40;;;;;;4760508;30;20054;-87
2023/06/18 04:54:06;;;;;;;10.50;6.00;;;16.10;72.00;;;;;;4764937;30;20043;-87
2023/06/18 04:56:34;;;;;;;9.93;5.57;;;16.30;71.50;;;;;;4769882;30;20499;-87
2023/06/18 04:59:02;;;;;;;25.23;7.30;;;16.50;71.10;;;;;;4765398;30;20068;-88
2023/06/18 05:01:29;;;;;;;12.60;5.88;;;16.80;70.30;;;;;;4765246;30;20055;-88
2023/06/18 05:03:56;;;;;;;12.20;6.07;;;17.00;69.70;;;;;;4765254;30;20069;-88
2023/06/18 05:06:24;;;;;;;9.85;5.57;;;16.90;69.40;;;;;;4780047;30;20061;-88
2023/06/18 05:08:51;;;;;;;10.15;5.90;;;16.80;69.60;;;;;;4761283;30;20467;-87
2023/06/18 05:11:18;;;;;;;10.80;5.70;;;16.90;70.10;;;;;;4765117;30;20185;-88
2023/06/18 05:13:46;;;;;;;11.35;6.00;;;17.00;70.00;;;;;;4778820;30;20043;-88
2023/06/18 05:16:13;;;;;;;10.60;5.47;;;17.10;69.70;;;;;;4766106;30;20250;-88
2023/06/18 05:18:41;;;;;;;13.02;7.13;;;17.10;70.30;;;;;;4765061;30;20055;-88
2023/06/18 05:21:12;;;;;;;13.65;5.72;;;17.30;69.50;;;;;;4783550;30;20108;-88
2023/06/18 05:23:39;;;;;;;14.03;7.13;;;17.60;68.60;;;;;;4779258;30;20510;-88
2023/06/18 05:26:06;;;;;;;13.10;6.40;;;17.80;68.30;;;;;;4763930;30;20092;-88
2023/06/18 05:28:34;;;;;;;10.60;5.57;;;17.90;68.60;;;;;;4765298;30;20049;-88
2023/06/18 05:31:01;;;;;;;10.75;6.00;;;18.00;68.10;;;;;;4768089;30;20047;-88
2023/06/18 05:33:29;;;;;;;10.77;5.68;;;18.00;68.00;;;;;;4765768;30;20150;-88
2023/06/18 05:35:59;;;;;;;14.00;6.07;;;18.20;67.70;;;;;;4763583;30;20047;-87
2023/06/18 05:38:26;;;;;;;13.40;6.35;;;18.40;67.30;;;;;;4763063;29;20055;-87
2023/06/18 05:40:54;;;;;;;13.40;7.18;;;18.50;67.50;;;;;;4781745;30;20069;-88
2023/06/18 05:43:23;;;;;;;15.65;6.80;;;18.70;66.70;;;;;;4763786;30;20108;-88
2023/06/18 05:45:52;;;;;;;15.32;6.90;;;18.90;65.50;;;;;;4795728;29;20060;-87
2023/06/18 05:48:20;;;;;;;14.90;7.27;;;19.10;64.70;;;;;;4780490;30;20055;-88
2023/06/18 05:51:04;;;;;;;15.32;7.05;;;19.30;65.00;;;;;;4765636;30;20130;-88
2023/06/18 05:53:33;;;;;;;17.35;5.75;;;19.40;65.10;;;;;;4777597;30;20083;-88
2023/06/18 05:56:00;;;;;;;11.45;5.38;;;19.50;64.00;;;;;;4783007;29;20047;-88
2023/06/18 05:58:27;;;;;;;8.63;4.80;;;19.60;64.30;;;;;;4767484;30;20521;-88
2023/06/18 06:00:54;;;;;;;8.00;4.63;;;19.70;63.60;;;;;;4779668;30;20071;-88
2023/06/18 06:03:21;;;;;;;9.13;4.72;;;19.80;62.90;;;;;;4763082;30;20051;-88
2023/06/18 06:05:48;;;;;;;8.65;4.43;;;20.00;63.50;;;;;;4765198;30;20051;-88
2023/06/18 06:08:15;;;;;;;8.60;4.97;;;20.00;62.10;;;;;;4762261;29;20055;-90
2023/06/18 06:10:47;;;;;;;9.25;4.97;;;20.10;62.10;;;;;;4763656;30;20043;-90
2023/06/18 06:13:15;;;;;;;7.43;4.40;;;20.20;61.90;;;;;;4765902;30;20043;-90
2023/06/18 06:15:42;;;;;;;8.65;4.72;;;20.20;61.90;;;;;;4761679;30;20050;-88
2023/06/18 06:18:10;;;;;;;10.20;4.82;;;20.40;61.80;;;;;;4792266;29;20051;-88
2023/06/18 06:20:37;;;;;;;8.95;4.50;;;20.40;62.10;;;;;;4775688;30;20074;-89
2023/06/18 06:23:05;;;;;;;8.57;4.95;;;20.50;61.60;;;;;;4766068;30;20058;-89
2023/06/18 06:25:32;;;;;;;9.03;4.60;;;20.50;61.40;;;;;;4768020;30;20554;-88
2023/06/18 06:27:59;;;;;;;7.72;4.28;;;20.60;60.50;;;;;;4761605;30;20058;-87
2023/06/18 06:30:27;;;;;;;8.40;4.45;;;20.50;60.20;;;;;;4766095;30;20059;-89
2023/06/18 06:32:59;;;;;;;7.78;4.10;;;20.40;61.10;;;;;;4762879;30;20115;-89
2023/06/18 06:35:28;;;;;;;8.60;4.43;;;20.40;61.30;;;;;;4764470;30;20055;-88
2023/06/18 06:42:47;;;;;;;7.43;4.07;;;20.60;60.20;;;;;;4787587;30;20540;-89
2023/06/18 06:45:22;;;;;;;8.68;4.22;;;20.70;60.20;;;;;;4767497;30;20047;-88
2023/06/18 06:48:10;;;;;;;10.68;5.05;;;20.80;60.00;;;;;;4764230;30;20144;-89
2023/06/18 06:50:40;;;;;;;8.18;4.45;;;20.70;60.60;;;;;;4777807;30;20136;-89
2023/06/18 06:53:21;;;;;;;9.47;5.30;;;20.80;60.60;;;;;;4766696;30;20126;-89
2023/06/18 06:55:48;;;;;;;9.35;4.97;;;21.10;60.30;;;;;;4765459;30;20046;-87
2023/06/18 06:58:18;;;;;;;9.20;5.00;;;21.00;59.80;;;;;;4776488;30;20182;-87
2023/06/18 07:00:45;;;;;;;9.38;5.20;;;20.90;60.20;;;;;;4763266;30;20507;-85
2023/06/18 07:03:12;;;;;;;8.38;4.88;;;21.00;60.40;;;;;;4777636;30;20513;-86
2023/06/18 07:05:40;;;;;;;7.93;4.77;;;21.10;60.90;;;;;;4760252;30;20142;-86
2023/06/18 07:08:07;;;;;;;7.95;4.53;;;21.10;59.60;;;;;;4766266;30;20043;-87
2023/06/18 07:10:34;;;;;;;9.57;4.90;;;21.10;59.90;;;;;;4769911;30;20120;-87
2023/06/18 07:13:04;;;;;;;8.00;4.30;;;21.20;59.40;;;;;;4783936;30;20090;-90
2023/06/18 07:15:31;;;;;;;8.75;4.90;;;21.50;60.40;;;;;;4767808;30;20499;-88
2023/06/18 07:17:58;;;;;;;9.07;4.60;;;21.40;58.80;;;;;;4799845;29;20051;-88
2023/06/18 07:20:26;;;;;;;9.27;4.93;;;21.50;59.40;;;;;;4767038;30;20047;-90
2023/06/18 07:22:53;;;;;;;9.85;5.00;;;21.70;58.50;;;;;;4781041;30;20070;-89
2023/06/18 07:25:20;;;;;;;8.73;4.60;;;21.60;57.40;;;;;;4781663;30;20392;-89
2023/06/18 07:27:47;;;;;;;8.90;4.82;;;21.70;58.20;;;;;;4767528;30;20134;-89
2023/06/18 07:30:14;;;;;;;10.03;4.90;;;21.60;58.60;;;;;;4767276;30;20055;-90
2023/06/18 07:32:41;;;;;;;8.48;4.97;;;21.70;58.20;;;;;;4778230;29;20051;-89
2023/06/18 07:35:09;;;;;;;7.82;4.68;;;21.80;57.80;;;;;;4764736;30;20069;-88
2023/06/18 07:37:36;;;;;;;8.73;4.70;;;21.90;57.10;;;;;;4782318;30;20499;-90
2023/06/18 07:40:03;;;;;;;8.93;5.00;;;22.00;57.50;;;;;;4769871;30;20051;-90
2023/06/18 07:42:30;;;;;;;8.83;5.07;;;22.20;58.60;;;;;;4781217;30;20051;-90
2023/06/18 07:44:57;;;;;;;8.13;5.05;;;22.20;57.20;;;;;;4781551;30;20407;-91
2023/06/18 07:47:24;;;;;;;7.95;4.68;;;22.40;58.10;;;;;;4782217;30;20051;-92
2023/06/18 07:49:54;;;;;;;8.63;4.50;;;22.50;57.50;;;;;;4767746;30;20051;-92
2023/06/18 07:52:21;;;;;;;7.95;4.70;;;22.10;57.70;;;;;;4768051;30;20085;-92
2023/06/18 07:54:48;;;;;;;7.80;4.43;;;22.20;58.20;;;;;;4766987;30;20043;-92
2023/06/18 07:57:15;;;;;;;10.45;4.43;;;22.30;56.60;;;;;;4771631;30;20108;-93
2023/06/18 07:59:43;;;;;;;9.38;4.60;;;22.40;56.10;;;;;;4773120;30;20054;-87
2023/06/18 08:02:10;;;;;;;8.20;4.50;;;22.30;55.40;;;;;;4782699;30;20071;-88
2023/06/18 08:04:37;;;;;;;7.85;3.92;;;22.40;55.90;;;;;;4768518;30;20044;-87
2023/06/18 08:07:05;;;;;;;7.73;4.13;;;22.40;56.00;;;;;;4781165;29;20052;-89
2023/06/18 08:09:33;;;;;;;7.65;4.35;;;22.30;56.30;;;;;;4780782;29;20057;-90
2023/06/18 08:12:00;;;;;;;9.20;3.90;;;22.20;56.00;;;;;;4767320;30;20051;-91
2023/06/18 08:14:28;;;;;;;7.50;4.18;;;22.40;56.70;;;;;;4766864;30;20064;-92
2023/06/18 08:16:55;;;;;;;7.07;3.80;;;22.60;55.80;;;;;;4781837;30;20055;-91
2023/06/18 08:19:22;;;;;;;8.00;3.47;;;22.70;55.20;;;;;;4767807;30;20104;-92
2023/06/18 08:21:49;;;;;;;8.32;3.70;;;22.80;55.60;;;;;;4781668;30;20100;-90
2023/06/18 08:24:16;;;;;;;7.63;3.90;;;22.90;55.70;;;;;;4766119;30;20047;-92
2023/06/18 08:26:44;;;;;;;7.85;4.03;;;23.00;56.00;;;;;;4770033;30;20053;-88
2023/06/18 08:29:11;;;;;;;6.78;4.03;;;23.10;53.90;;;;;;4780637;30;20050;-88
2023/06/18 08:31:41;;;;;;;7.43;3.40;;;23.10;54.40;;;;;;4765474;30;20522;-88
2023/06/18 08:34:08;;;;;;;7.25;3.58;;;23.00;54.00;;;;;;4784218;30;20051;-88
2023/06/18 08:36:35;;;;;;;15.60;3.70;;;22.70;54.30;;;;;;4766861;30;20050;-89
2023/06/18 08:39:02;;;;;;;7.28;3.35;;;22.50;55.70;;;;;;4766876;30;20051;-88
2023/06/18 08:41:29;;;;;;;7.47;3.47;;;22.40;55.90;;;;;;4764602;30;20100;-88
2023/06/18 08:43:57;;;;;;;7.43;3.80;;;22.60;55.70;;;;;;4767936;30;20063;-88
2023/06/18 08:46:28;;;;;;;8.40;4.15;;;22.90;55.90;;;;;;4767307;30;20491;-88
2023/06/18 08:49:02;;;;;;;7.93;3.80;;;23.10;54.80;;;;;;4779284;30;20057;-88
2023/06/18 08:51:31;;;;;;;6.97;3.50;;;23.20;52.40;;;;;;4781966;29;20134;-89
2023/06/18 08:54:18;;;;;;;6.72;3.17;;;23.30;51.80;;;;;;4765499;30;20048;-88
2023/06/18 08:56:49;;;;;;;8.23;3.40;;;23.20;50.70;;;;;;4783024;29;20055;-89
2023/06/18 08:59:18;;;;;;;7.68;3.58;;;23.50;51.70;;;;;;4783980;30;20051;-89
2023/06/18 09:01:49;;;;;;;7.05;3.33;;;23.60;49.30;;;;;;4763510;30;20071;-89
2023/06/18 09:04:17;;;;;;;7.18;3.50;;;23.80;50.90;;;;;;4766576;30;20459;-88
2023/06/18 09:06:45;;;;;;;8.30;3.33;;;23.80;51.30;;;;;;4780356;30;20081;-89
2023/06/18 09:09:15;;;;;;;6.20;2.90;;;23.80;51.30;;;;;;4797360;29;20047;-89
2023/06/18 09:11:42;;;;;;;6.82;3.05;;;23.70;50.60;;;;;;4761030;30;20154;-88
2023/06/18 09:14:09;;;;;;;7.57;3.03;;;23.70;50.00;;;;;;4765690;30;20069;-89
2023/06/18 09:16:36;;;;;;;6.40;3.40;;;23.70;50.50;;;;;;4783461;30;20077;-89
2023/06/18 09:19:04;;;;;;;6.93;3.10;;;23.90;49.30;;;;;;4782131;30;20051;-89
2023/06/18 09:21:39;;;;;;;6.70;2.83;;;24.10;48.00;;;;;;4796205;29;20055;-89
2023/06/18 09:24:09;;;;;;;6.53;3.20;;;24.10;47.20;;;;;;4778435;30;20054;-89
2023/06/18 09:26:36;;;;;;;7.78;4.20;;;24.20;45.90;;;;;;4767326;30;20135;-89
2023/06/18 09:29:08;;;;;;;7.45;3.85;;;24.30;46.90;;;;;;4780479;30;20043;-89
2023/06/18 09:31:41;;;;;;;8.82;4.57;;;24.40;48.30;;;;;;4778496;29;20093;-89
2023/06/18 09:34:13;;;;;;;11.47;5.30;;;24.60;48.70;;;;;;4759943;30;20047;-89
2023/06/18 09:36:41;;;;;;;9.75;5.03;;;24.50;46.10;;;;;;4780254;30;20057;-88
2023/06/18 09:39:22;;;;;;;8.07;5.13;;;24.40;46.70;;;;;;4780657;29;20059;-89
2023/06/18 09:41:54;;;;;;;8.63;4.40;;;24.40;47.40;;;;;;4767808;30;20147;-89
2023/06/18 09:44:23;;;;;;;10.23;5.15;;;24.60;48.00;;;;;;4764366;30;20506;-89
2023/06/18 09:46:55;;;;;;;11.43;5.73;;;24.50;46.10;;;;;;4766532;30;20051;-89
2023/06/18 09:49:24;;;;;;;10.98;5.32;;;24.30;48.00;;;;;;4778631;30;20048;-89
2023/06/18 09:51:53;;;;;;;9.30;5.30;;;24.30;48.40;;;;;;4782053;29;20063;-89
2023/06/18 09:54:21;;;;;;;8.13;5.05;;;24.40;46.80;;;;;;4779636;30;20048;-88
2023/06/18 09:56:57;;;;;;;9.55;6.70;;;24.30;46.20;;;;;;4779674;30;20047;-89
2023/06/18 09:59:26;;;;;;;7.77;4.63;;;24.00;46.30;;;;;;4764877;30;20062;-89
2023/06/18 10:01:54;;;;;;;9.15;5.00;;;24.00;45.40;;;;;;4781148;30;20132;-89
2023/06/18 10:04:22;;;;;;;10.20;5.07;;;24.20;46.30;;;;;;4765092;30;20138;-89
2023/06/18 10:07:04;;;;;;;9.77;5.22;;;24.30;46.70;;;;;;4781043;30;20051;-89
2023/06/18 10:09:39;;;;;;;9.27;4.70;;;24.40;47.40;;;;;;4792815;29;20058;-88
2023/06/18 10:12:07;;;;;;;7.50;4.17;;;24.60;46.40;;;;;;4765004;30;20128;-89
2023/06/18 10:14:34;;;;;;;9.57;5.30;;;24.60;46.50;;;;;;4764309;30;20047;-89
2023/06/18 10:17:05;;;;;;;8.05;4.57;;;24.80;45.50;;;;;;4779692;30;20058;-89
2023/06/18 10:19:42;;;;;;;11.30;4.53;;;25.00;46.70;;;;;;4765002;30;20055;-89
2023/06/18 10:22:12;;;;;;;8.00;4.35;;;25.00;46.30;;;;;;4765706;30;20047;-89
2023/06/18 10:25:01;;;;;;;8.13;4.37;;;24.90;47.40;;;;;;4762607;30;20567;-89
2023/06/18 10:27:29;;;;;;;7.78;4.60;;;24.90;47.70;;;;;;4759453;30;20048;-89
2023/06/18 10:29:57;;;;;;;9.20;5.88;;;24.90;46.70;;;;;;4765899;30;20051;-89
2023/06/18 10:32:26;;;;;;;8.57;5.65;;;25.00;46.60;;;;;;4761492;30;20044;-89
2023/06/18 10:34:56;;;;;;;8.95;5.72;;;25.20;47.40;;;;;;4760593;30;20040;-89
2023/06/18 10:37:25;;;;;;;8.03;5.40;;;25.40;45.70;;;;;;4779471;30;20058;-89
2023/06/18 10:39:53;;;;;;;9.93;5.38;;;25.50;45.40;;;;;;4762834;30;20055;-89
2023/06/18 10:42:22;;;;;;;7.70;4.60;;;25.70;46.40;;;;;;4764822;30;20132;-89
2023/06/18 10:44:55;;;;;;;11.70;5.00;;;26.00;45.20;;;;;;4763288;30;20054;-89
2023/06/18 10:47:29;;;;;;;7.95;5.03;;;25.80;43.40;;;;;;4778328;30;20127;-89
2023/06/18 10:50:03;;;;;;;8.80;4.43;;;25.50;44.40;;;;;;4762645;30;20062;-89
2023/06/18 10:52:34;;;;;;;7.38;4.40;;;25.60;45.70;;;;;;4763869;30;20039;-89
2023/06/18 10:55:09;;;;;;;7.80;4.50;;;25.90;44.00;;;;;;4776382;30;20167;-89
2023/06/18 10:57:40;;;;;;;6.63;3.70;;;25.90;45.10;;;;;;4765881;30;20055;-89
2023/06/18 11:00:15;;;;;;;8.73;3.80;;;26.00;42.50;;;;;;4780032;30;20162;-90
2023/06/18 11:02:43;;;;;;;7.40;4.50;;;26.10;44.50;;;;;;4792710;29;20047;-89
2023/06/18 11:05:32;;;;;;;8.07;4.10;;;26.10;43.10;;;;;;4780595;30;20074;-89
2023/06/18 11:08:01;;;;;;;6.80;4.05;;;25.70;42.50;;;;;;4777693;30;20134;-89
2023/06/18 11:10:49;;;;;;;7.50;5.05;;;25.60;42.50;;;;;;4766199;30;20039;-89
2023/06/18 11:13:17;;;;;;;7.90;4.13;;;25.70;43.30;;;;;;4777797;30;20051;-89
2023/06/18 11:16:05;;;;;;;7.47;4.33;;;25.80;42.80;;;;;;4782125;30;20527;-90
2023/06/18 11:18:33;;;;;;;7.43;4.20;;;25.90;44.30;;;;;;4781286;30;20087;-89
2023/06/18 11:21:04;;;;;;;6.90;4.18;;;25.80;42.90;;;;;;4777834;30;20048;-89
2023/06/18 11:23:33;;;;;;;8.18;4.53;;;26.00;42.40;;;;;;4779370;29;20054;-90
2023/06/18 11:26:01;;;;;;;6.70;4.38;;;26.00;42.10;;;;;;4778596;30;20472;-89
2023/06/18 11:28:31;;;;;;;6.87;4.30;;;26.10;42.70;;;;;;4765872;30;20556;-90
2023/06/18 11:30:59;;;;;;;7.18;4.55;;;26.40;42.00;;;;;;4761403;30;20047;-89
2023/06/18 11:33:29;;;;;;;7.60;4.43;;;26.40;41.20;;;;;;4779561;30;20103;-89
2023/06/18 11:36:13;;;;;;;7.47;4.75;;;26.10;42.50;;;;;;4764095;30;20392;-89
2023/06/18 11:38:45;;;;;;;6.75;4.72;;;26.10;41.60;;;;;;4766445;30;20051;-89
2023/06/18 11:41:20;;;;;;;6.70;4.43;;;26.20;43.40;;;;;;4767579;30;20058;-89
2023/06/18 11:43:51;;;;;;;7.85;4.30;;;26.40;44.00;;;;;;4761217;30;20055;-90
2023/06/18 11:46:37;;;;;;;6.40;3.55;;;26.50;41.80;;;;;;4781812;30;20066;-89
2023/06/18 11:49:13;;;;;;;7.55;3.80;;;26.60;41.90;;;;;;4764326;30;20569;-89
2023/06/18 11:51:41;;;;;;;6.60;3.90;;;26.60;40.90;;;;;;4780532;30;20078;-89
2023/06/18 11:54:08;;;;;;;6.77;3.77;;;26.70;41.00;;;;;;4782580;30;20399;-90
2023/06/18 11:56:36;;;;;;;6.63;4.25;;;26.90;40.60;;;;;;4768860;29;20059;-90
2023/06/18 11:59:03;;;;;;;6.10;3.55;;;27.10;41.40;;;;;;4768024;30;20530;-90
2023/06/18 12:01:31;;;;;;;6.53;4.22;;;27.30;42.70;;;;;;4766800;30;20055;-89
2023/06/18 12:04:05;;;;;;;7.68;3.92;;;27.30;40.30;;;;;;4768291;30;20392;-89
2023/06/18 12:06:33;;;;;;;6.60;3.83;;;27.30;39.20;;;;;;4784040;30;20503;-89
2023/06/18 12:09:08;;;;;;;6.43;3.88;;;27.10;38.90;;;;;;4766915;30;20070;-89
2023/06/18 12:12:13;;;;;;;6.18;4.05;;;27.10;38.60;;;;;;4762987;30;20097;-89
2023/06/18 12:14:44;;;;;;;5.90;3.72;;;26.80;38.60;;;;;;4778638;30;20063;-90
2023/06/18 12:17:18;;;;;;;6.45;4.38;;;26.70;40.50;;;;;;4766031;30;20126;-89
2023/06/18 12:20:05;;;;;;;6.80;4.07;;;26.80;40.80;;;;;;4783742;30;20074;-89
2023/06/18 12:22:33;;;;;;;6.97;3.88;;;27.00;40.40;;;;;;4757776;30;20083;-90
2023/06/18 12:25:00;;;;;;;6.82;4.10;;;27.10;41.40;;;;;;4766206;30;20047;-90
2023/06/18 12:27:28;;;;;;;6.65;4.00;;;27.30;41.10;;;;;;4780544;29;20084;-90
2023/06/18 12:30:05;;;;;;;7.22;4.22;;;27.60;39.60;;;;;;4767888;30;20495;-90
2023/06/18 12:32:33;;;;;;;6.57;4.30;;;27.70;40.10;;;;;;4783016;30;20047;-90
2023/06/18 12:35:09;;;;;;;7.05;4.60;;;27.50;39.60;;;;;;4782186;30;20042;-89
2023/06/18 12:37:41;;;;;;;6.55;4.63;;;27.60;40.80;;;;;;4796172;29;20077;-90
2023/06/18 12:40:18;;;;;;;7.55;4.82;;;27.60;40.60;;;;;;4769427;30;20062;-89
2023/06/18 12:42:46;;;;;;;7.32;4.78;;;27.60;40.50;;;;;;4781218;29;20473;-89
2023/06/18 12:45:14;;;;;;;6.70;4.77;;;27.20;39.40;;;;;;4764988;30;20524;-88
2023/06/18 12:47:45;;;;;;;7.28;4.45;;;26.90;39.30;;;;;;4768552;30;20051;-89
2023/06/18 12:50:39;;;;;;;7.35;4.68;;;26.90;39.20;;;;;;4768085;30;20055;-90
2023/06/18 12:53:14;;;;;;;6.78;4.15;;;26.70;40.10;;;;;;4783090;29;20427;-90
2023/06/18 12:55:45;;;;;;;7.00;4.38;;;26.60;40.10;;;;;;4782956;30;20043;-89
2023/06/18 12:58:24;;;;;;;7.50;4.70;;;26.30;41.60;;;;;;4780648;29;20058;-89
2023/06/18 13:00:53;;;;;;;8.80;4.30;;;26.00;42.60;;;;;;4764971;30;20051;-89